Time;durP1;ratioP1;P1;durP2;ratioP2;P2;SDS_P1;SDS_P2;PMS_P1;PMS_P2;Temp;Humidity;BMP_temperature;BMP_pressure;BME280_temperature;BME280_humidity;BME280_pressure;Samples;Min_cycle;Max_cycle;Signal;HPM_P1;HPM_P2
2021/05/07 00:00:40;;;;;;;8.90;7.32;;;3.80;99.90;;;;;;5111587;28;20044;-63
2021/05/07 00:03:05;;;;;;;8.75;7.45;;;3.80;99.90;;;;;;5111344;28;20077;-63
2021/05/07 00:05:32;;;;;;;12.37;7.77;;;3.70;99.90;;;;;;5110939;28;20395;-63
2021/05/07 00:07:58;;;;;;;8.88;7.97;;;3.60;99.90;;;;;;5111489;28;20055;-63
2021/05/07 00:10:25;;;;;;;11.80;8.25;;;3.60;99.90;;;;;;5111504;28;20054;-63
2021/05/07 00:12:51;;;;;;;9.52;7.95;;;3.50;99.90;;;;;;5111241;28;20043;-62
2021/05/07 00:15:17;;;;;;;10.13;7.88;;;3.50;99.90;;;;;;5111332;28;20046;-63
2021/05/07 00:17:43;;;;;;;10.10;7.53;;;3.50;99.90;;;;;;5111400;28;20043;-62
2021/05/07 00:20:10;;;;;;;9.50;7.90;;;3.30;99.90;;;;;;5111297;28;20108;-63
2021/05/07 00:22:37;;;;;;;9.07;7.00;;;3.40;99.90;;;;;;5111355;28;20040;-63
2021/05/07 00:25:03;;;;;;;8.73;7.00;;;3.40;99.90;;;;;;5091674;28;20048;-62
2021/05/07 00:27:29;;;;;;;7.70;6.88;;;3.60;99.90;;;;;;5111534;28;20062;-62
2021/05/07 00:29:55;;;;;;;8.03;6.87;;;3.60;99.90;;;;;;5111157;28;20371;-62
2021/05/07 00:32:20;;;;;;;8.63;7.00;;;3.60;99.90;;;;;;5092563;28;20050;-62
2021/05/07 00:34:46;;;;;;;6.83;6.10;;;3.70;99.90;;;;;;5111135;28;20158;-62
2021/05/07 00:37:12;;;;;;;7.07;6.20;;;3.60;99.90;;;;;;5110907;28;20107;-63
2021/05/07 00:39:37;;;;;;;9.13;6.50;;;3.50;99.90;;;;;;5110988;28;20126;-63
2021/05/07 00:42:04;;;;;;;8.83;6.20;;;3.50;99.90;;;;;;5110815;28;20047;-63
2021/05/07 00:44:31;;;;;;;7.15;5.88;;;3.50;99.90;;;;;;5110867;28;20068;-62
2021/05/07 00:46:58;;;;;;;7.65;5.57;;;3.50;99.90;;;;;;5110652;28;20062;-63
2021/05/07 00:49:24;;;;;;;6.65;6.00;;;3.50;99.90;;;;;;5110452;28;20052;-63
2021/05/07 00:51:51;;;;;;;6.33;5.70;;;3.50;99.90;;;;;;5110386;28;20073;-63
2021/05/07 00:54:17;;;;;;;7.78;5.00;;;3.50;99.90;;;;;;5110155;28;20048;-63
2021/05/07 00:56:44;;;;;;;5.53;4.88;;;3.40;99.90;;;;;;5110747;28;20115;-62
2021/05/07 00:59:10;;;;;;;6.10;5.30;;;3.30;99.90;;;;;;5110136;28;20051;-63
2021/05/07 01:01:36;;;;;;;7.40;5.50;;;3.20;99.90;;;;;;5110479;28;20393;-63
2021/05/07 01:04:02;;;;;;;6.78;5.43;;;3.10;99.90;;;;;;5110641;28;20049;-62
2021/05/07 01:06:28;;;;;;;7.40;5.97;;;3.00;99.90;;;;;;5110729;28;20454;-62
2021/05/07 01:08:54;;;;;;;6.53;5.38;;;2.90;99.90;;;;;;5110809;28;20327;-63
2021/05/07 01:11:20;;;;;;;7.40;5.90;;;2.90;99.90;;;;;;5092069;28;20052;-63
2021/05/07 01:13:46;;;;;;;7.70;5.70;;;2.80;99.90;;;;;;5110350;28;20071;-63
2021/05/07 01:16:12;;;;;;;9.40;6.23;;;2.80;99.90;;;;;;5110390;28;20534;-63
2021/05/07 01:18:37;;;;;;;7.97;5.87;;;2.70;99.90;;;;;;5109880;28;20477;-62
2021/05/07 01:21:03;;;;;;;9.00;6.63;;;2.70;99.90;;;;;;5110339;28;20075;-63
2021/05/07 01:23:29;;;;;;;8.30;6.23;;;2.60;99.90;;;;;;5110040;28;20046;-63
2021/05/07 01:25:55;;;;;;;7.80;5.97;;;2.50;99.90;;;;;;5109808;28;20716;-62
2021/05/07 01:28:21;;;;;;;8.03;6.20;;;2.50;99.90;;;;;;5110028;28;20044;-63
2021/05/07 01:30:50;;;;;;;7.40;5.97;;;2.50;99.90;;;;;;5109771;28;20188;-62
2021/05/07 01:33:17;;;;;;;5.80;5.25;;;2.50;99.90;;;;;;5110139;28;20485;-63
2021/05/07 01:35:45;;;;;;;8.23;6.13;;;2.40;99.90;;;;;;5108581;28;20044;-63
2021/05/07 01:38:13;;;;;;;7.63;5.82;;;2.20;99.90;;;;;;5109872;28;20119;-63
2021/05/07 01:40:45;;;;;;;8.25;6.32;;;2.30;99.90;;;;;;5109856;28;20076;-62
2021/05/07 01:43:12;;;;;;;9.27;6.18;;;2.30;99.90;;;;;;5109584;28;20051;-62
2021/05/07 01:45:40;;;;;;;7.57;5.68;;;2.30;99.90;;;;;;5109908;28;20035;-63
2021/05/07 01:48:07;;;;;;;8.43;5.60;;;2.30;99.90;;;;;;5109958;28;20066;-62
2021/05/07 01:50:36;;;;;;;7.78;5.40;;;2.30;99.90;;;;;;5109847;28;20090;-63
2021/05/07 01:53:02;;;;;;;6.10;5.32;;;2.20;99.90;;;;;;5091049;28;20256;-62
2021/05/07 01:55:49;;;;;;;9.82;7.07;;;2.10;99.90;;;;;;5109802;28;20040;-63
2021/05/07 01:58:17;;;;;;;8.77;6.30;;;2.10;99.90;;;;;;5109226;28;20541;-63
2021/05/07 02:00:43;;;;;;;10.75;6.65;;;2.10;99.90;;;;;;5109791;28;20052;-63
2021/05/07 02:03:12;;;;;;;9.30;6.57;;;2.00;99.90;;;;;;5109512;28;20057;-63
2021/05/07 02:05:39;;;;;;;8.88;6.55;;;2.10;99.90;;;;;;5109140;28;20071;-63
2021/05/07 02:08:06;;;;;;;9.40;6.75;;;2.00;99.90;;;;;;5109447;28;20058;-63
2021/05/07 02:10:33;;;;;;;11.70;7.07;;;2.00;99.90;;;;;;5109150;28;20052;-62
2021/05/07 02:13:02;;;;;;;11.00;7.72;;;2.00;99.90;;;;;;5109314;28;20049;-63
2021/05/07 02:15:28;;;;;;;10.38;7.13;;;2.00;99.90;;;;;;5108939;28;20463;-63
2021/05/07 02:17:54;;;;;;;9.73;7.53;;;2.00;99.90;;;;;;5109171;28;20071;-63
2021/05/07 02:20:24;;;;;;;9.77;7.05;;;2.00;99.90;;;;;;5109067;28;20092;-62
2021/05/07 02:22:50;;;;;;;6.70;6.00;;;1.90;99.90;;;;;;5108984;28;20047;-63
2021/05/07 02:25:18;;;;;;;9.85;6.40;;;1.90;99.90;;;;;;5108886;28;20111;-62
2021/05/07 02:27:48;;;;;;;9.75;6.80;;;1.90;99.90;;;;;;5109213;28;20122;-63
2021/05/07 02:30:18;;;;;;;10.07;7.13;;;1.90;99.90;;;;;;5109166;28;20688;-63
2021/05/07 02:32:44;;;;;;;9.68;7.53;;;1.90;99.90;;;;;;5108792;28;20123;-63
2021/05/07 02:35:10;;;;;;;10.03;7.23;;;1.90;99.90;;;;;;5090742;28;20119;-63
2021/05/07 02:37:36;;;;;;;11.85;6.70;;;1.80;99.90;;;;;;5108860;28;20043;-62
2021/05/07 02:40:04;;;;;;;9.70;7.03;;;1.80;99.90;;;;;;5108532;28;20378;-63
2021/05/07 02:42:29;;;;;;;9.43;7.05;;;1.80;99.90;;;;;;5108911;28;20122;-63
2021/05/07 02:45:04;;;;;;;9.23;6.78;;;1.80;99.90;;;;;;5092065;28;20078;-63
2021/05/07 02:47:33;;;;;;;9.30;6.70;;;1.80;99.90;;;;;;5110079;28;20088;-63
2021/05/07 02:50:00;;;;;;;8.90;6.75;;;1.80;99.90;;;;;;5112825;28;20097;-62
2021/05/07 02:52:26;;;;;;;8.98;7.00;;;1.80;99.90;;;;;;5112974;28;20043;-63
2021/05/07 02:54:52;;;;;;;11.33;7.30;;;1.80;99.90;;;;;;5112952;28;20047;-63
2021/05/07 02:57:18;;;;;;;7.63;6.80;;;1.90;99.90;;;;;;5112506;28;20044;-62
2021/05/07 02:59:44;;;;;;;14.88;7.28;;;1.90;99.90;;;;;;5112954;28;20123;-63
2021/05/07 03:02:10;;;;;;;12.50;7.53;;;1.90;99.90;;;;;;5112964;28;20130;-63
2021/05/07 03:04:36;;;;;;;9.98;8.05;;;1.90;99.90;;;;;;5112979;28;20051;-63
2021/05/07 03:07:02;;;;;;;10.10;7.77;;;1.80;99.90;;;;;;5112742;28;20078;-63
2021/05/07 03:09:28;;;;;;;9.65;7.70;;;1.80;99.90;;;;;;5113043;28;20063;-62
2021/05/07 03:11:56;;;;;;;8.70;7.60;;;1.80;99.90;;;;;;5112827;28;20044;-63
2021/05/07 03:14:22;;;;;;;11.50;8.05;;;1.70;99.90;;;;;;5112485;28;20341;-63
2021/05/07 03:16:48;;;;;;;11.77;8.57;;;1.70;99.90;;;;;;5113016;28;20078;-63
2021/05/07 03:19:14;;;;;;;15.00;10.47;;;1.70;99.90;;;;;;5112705;28;20487;-63
2021/05/07 03:21:40;;;;;;;12.27;9.33;;;1.70;99.90;;;;;;5112598;28;20119;-63
2021/05/07 03:24:08;;;;;;;15.10;9.90;;;1.70;99.90;;;;;;5112390;28;20651;-63
2021/05/07 03:26:34;;;;;;;15.38;9.73;;;1.70;99.90;;;;;;5112313;28;20047;-63
2021/05/07 03:28:59;;;;;;;11.43;9.13;;;1.70;99.90;;;;;;5112536;28;20104;-63
2021/05/07 03:31:26;;;;;;;14.80;9.93;;;1.60;99.90;;;;;;5112201;28;20074;-62
2021/05/07 03:33:52;;;;;;;15.38;10.25;;;1.60;99.90;;;;;;5111487;28;20055;-63
2021/05/07 03:36:19;;;;;;;16.17;11.17;;;1.60;99.90;;;;;;5111979;28;20114;-63
2021/05/07 03:38:45;;;;;;;13.73;9.95;;;1.60;99.90;;;;;;5111891;28;20426;-62
2021/05/07 03:41:10;;;;;;;17.03;12.50;;;1.60;99.90;;;;;;5111643;28;20126;-63
2021/05/07 03:43:36;;;;;;;17.33;11.60;;;1.60;99.90;;;;;;5111531;28;20126;-62
2021/05/07 03:46:03;;;;;;;17.50;11.10;;;1.60;99.90;;;;;;5111590;28;20043;-63
2021/05/07 03:48:29;;;;;;;15.80;10.82;;;1.60;99.90;;;;;;5111687;28;20043;-62
2021/05/07 03:50:56;;;;;;;18.93;12.40;;;1.60;99.90;;;;;;5111818;28;20137;-62
2021/05/07 03:53:22;;;;;;;18.38;12.27;;;1.60;99.90;;;;;;5112398;28;20055;-63
2021/05/07 03:55:49;;;;;;;19.73;11.93;;;1.60;99.90;;;;;;5111666;28;20062;-63
2021/05/07 03:58:15;;;;;;;16.25;11.20;;;1.60;99.90;;;;;;5111515;28;20130;-63
2021/05/07 04:00:42;;;;;;;17.90;11.75;;;1.60;99.90;;;;;;5110822;28;20078;-62
2021/05/07 04:03:08;;;;;;;19.57;12.23;;;1.60;99.90;;;;;;5111668;28;20063;-63
2021/05/07 04:05:34;;;;;;;16.67;11.98;;;1.60;99.90;;;;;;5111560;28;20536;-63
2021/05/07 04:08:12;;;;;;;21.10;12.30;;;1.60;99.90;;;;;;5111540;28;20043;-62
2021/05/07 04:10:43;;;;;;;20.38;11.90;;;1.60;99.90;;;;;;5111470;28;20074;-63
2021/05/07 04:15:55;;;;;;;17.90;12.63;;;1.60;99.90;;;;;;5111458;28;20048;-63
2021/05/07 04:18:21;;;;;;;18.37;12.83;;;1.60;99.90;;;;;;5111403;28;20054;-63
2021/05/07 04:20:46;;;;;;;25.23;14.70;;;1.60;99.90;;;;;;5111223;28;20093;-62
2021/05/07 04:23:12;;;;;;;21.73;13.83;;;1.60;99.90;;;;;;5111437;28;20305;-63
2021/05/07 04:25:38;;;;;;;18.17;13.20;;;1.70;99.90;;;;;;5111368;28;20096;-63
2021/05/07 04:28:04;;;;;;;21.83;14.03;;;1.70;99.90;;;;;;5111248;28;20413;-63
2021/05/07 04:30:31;;;;;;;23.17;14.02;;;1.70;99.90;;;;;;5110791;28;20083;-64
2021/05/07 04:32:57;;;;;;;20.40;12.35;;;1.80;99.90;;;;;;5111109;28;20046;-62
2021/05/07 04:35:23;;;;;;;19.73;12.97;;;1.80;99.90;;;;;;5111152;28;20135;-64
2021/05/07 04:37:48;;;;;;;17.83;13.40;;;1.90;99.90;;;;;;5110953;28;20044;-63
2021/05/07 04:40:15;;;;;;;20.50;13.27;;;1.90;99.90;;;;;;5110920;28;20047;-63
2021/05/07 04:42:41;;;;;;;20.05;15.20;;;2.00;99.90;;;;;;5111052;28;20047;-62
2021/05/07 04:45:08;;;;;;;21.33;13.90;;;2.20;99.90;;;;;;5110728;28;20067;-62
2021/05/07 04:47:33;;;;;;;18.70;13.70;;;2.40;99.90;;;;;;5111228;28;20074;-62
2021/05/07 04:49:59;;;;;;;17.70;11.93;;;2.50;99.90;;;;;;5110672;28;20426;-62
2021/05/07 04:52:25;;;;;;;17.43;12.10;;;2.80;99.90;;;;;;5110507;28;20387;-62
2021/05/07 04:54:51;;;;;;;15.03;11.07;;;2.90;99.90;;;;;;5110425;28;20048;-63
2021/05/07 04:57:16;;;;;;;13.67;9.50;;;3.10;99.90;;;;;;5110508;28;20044;-63
2021/05/07 04:59:42;;;;;;;14.73;9.63;;;3.30;99.90;;;;;;5109266;28;20047;-63
2021/05/07 05:02:08;;;;;;;9.25;8.30;;;3.40;99.90;;;;;;5109284;28;20212;-63
2021/05/07 05:04:34;;;;;;;10.33;9.20;;;3.60;99.90;;;;;;5110121;28;20123;-62
2021/05/07 05:07:01;;;;;;;8.60;7.70;;;3.70;99.90;;;;;;5110287;28;20044;-63
2021/05/07 05:09:27;;;;;;;9.07;7.93;;;3.80;99.90;;;;;;5091971;28;20060;-63
2021/05/07 05:11:53;;;;;;;9.50;7.83;;;3.90;99.90;;;;;;5109881;28;20508;-62
2021/05/07 05:14:19;;;;;;;7.87;6.93;;;4.00;99.90;;;;;;5110315;28;20108;-63
2021/05/07 05:16:44;;;;;;;7.57;6.77;;;4.20;99.90;;;;;;5109691;28;20071;-61
2021/05/07 05:19:10;;;;;;;7.87;6.30;;;4.40;99.90;;;;;;5116666;28;20051;-64
2021/05/07 05:21:36;;;;;;;7.70;6.03;;;4.60;99.90;;;;;;5130700;28;20050;-62
2021/05/07 05:24:03;;;;;;;12.97;6.27;;;4.60;99.90;;;;;;5097101;28;20434;-64
2021/05/07 05:26:29;;;;;;;9.10;5.72;;;4.60;99.90;;;;;;5106847;28;20043;-64
2021/05/07 05:28:56;;;;;;;7.18;5.00;;;4.50;99.90;;;;;;5107522;28;20444;-65
2021/05/07 05:31:22;;;;;;;8.63;5.70;;;4.40;99.90;;;;;;5107887;28;20043;-67
2021/05/07 05:33:48;;;;;;;8.27;5.07;;;4.30;99.90;;;;;;5107171;28;20055;-65
2021/05/07 05:36:13;;;;;;;6.60;5.33;;;4.30;99.90;;;;;;5107790;28;20833;-68
2021/05/07 05:38:39;;;;;;;5.20;4.70;;;4.40;99.90;;;;;;5108081;28;20048;-64
2021/05/07 05:41:05;;;;;;;7.33;4.00;;;4.30;99.90;;;;;;5108858;28;20119;-64
2021/05/07 05:43:36;;;;;;;4.35;3.58;;;4.30;99.90;;;;;;5109474;28;20455;-66
2021/05/07 05:46:02;;;;;;;3.37;3.00;;;4.20;99.90;;;;;;5108525;28;20124;-63
2021/05/07 05:48:27;;;;;;;5.87;2.93;;;4.20;99.90;;;;;;5108429;28;20427;-63
2021/05/07 05:50:54;;;;;;;5.27;3.10;;;4.20;99.90;;;;;;5108544;28;20375;-63
2021/05/07 05:53:20;;;;;;;3.20;3.00;;;4.30;99.90;;;;;;5109203;28;20052;-64
2021/05/07 05:55:45;;;;;;;3.58;2.80;;;4.30;99.90;;;;;;5109736;28;20539;-62
2021/05/07 05:58:12;;;;;;;2.60;2.40;;;4.20;99.90;;;;;;5109069;28;20047;-61
2021/05/07 06:00:38;;;;;;;3.22;2.80;;;4.10;99.90;;;;;;5108985;28;20055;-62
2021/05/07 06:03:05;;;;;;;3.25;2.95;;;4.00;99.90;;;;;;5108688;28;20150;-61
2021/05/07 06:05:31;;;;;;;3.13;2.83;;;4.00;99.90;;;;;;5109028;28;20118;-61
2021/05/07 06:07:57;;;;;;;3.63;3.33;;;4.10;99.90;;;;;;5108022;28;20059;-61
2021/05/07 06:10:22;;;;;;;5.00;3.10;;;4.00;99.90;;;;;;5109073;28;20141;-62
2021/05/07 06:12:49;;;;;;;4.40;2.97;;;4.10;99.90;;;;;;5109258;28;20467;-62
2021/05/07 06:15:17;;;;;;;3.75;3.45;;;4.20;99.90;;;;;;5109160;28;20461;-62
2021/05/07 06:17:44;;;;;;;4.15;3.42;;;4.30;99.90;;;;;;5091000;28;20043;-62
2021/05/07 06:20:12;;;;;;;3.85;3.05;;;4.30;99.90;;;;;;5109063;28;20078;-61
2021/05/07 06:22:39;;;;;;;4.55;3.47;;;4.60;99.90;;;;;;5090445;28;20424;-62
2021/05/07 06:25:12;;;;;;;3.30;3.00;;;4.80;99.90;;;;;;5109064;28;20203;-62
2021/05/07 06:27:39;;;;;;;3.50;2.97;;;4.90;99.90;;;;;;5109641;28;20443;-61
2021/05/07 06:30:07;;;;;;;2.58;2.38;;;5.10;99.90;;;;;;5109100;28;20078;-62
2021/05/07 06:32:33;;;;;;;3.30;2.30;;;5.10;99.90;;;;;;5090876;28;20079;-62
2021/05/07 06:34:59;;;;;;;5.27;2.33;;;5.20;99.90;;;;;;5111936;28;20178;-61
2021/05/07 06:37:24;;;;;;;2.50;2.30;;;5.30;99.90;;;;;;5109282;28;20146;-62
2021/05/07 06:39:51;;;;;;;2.27;2.07;;;5.30;99.90;;;;;;5109590;28;20096;-62
2021/05/07 06:42:18;;;;;;;3.60;2.10;;;5.60;99.90;;;;;;5111697;28;20048;-60
2021/05/07 06:44:44;;;;;;;2.83;2.03;;;5.60;99.90;;;;;;5100650;28;20059;-60
2021/05/07 06:47:10;;;;;;;2.97;2.20;;;5.50;99.90;;;;;;5117635;28;20055;-59
2021/05/07 06:49:35;;;;;;;3.57;2.43;;;5.50;99.90;;;;;;5119989;28;20141;-60
2021/05/07 06:52:04;;;;;;;4.90;2.40;;;5.60;99.90;;;;;;5119787;28;20044;-60
2021/05/07 06:54:29;;;;;;;2.40;2.20;;;5.60;99.90;;;;;;5122198;28;20043;-59
2021/05/07 06:56:56;;;;;;;2.60;2.40;;;5.60;99.90;;;;;;5119733;28;20046;-59
2021/05/07 06:59:26;;;;;;;2.33;2.15;;;5.60;99.90;;;;;;5117459;28;20048;-64
2021/05/07 07:01:53;;;;;;;3.45;2.47;;;5.60;99.90;;;;;;5109344;28;20071;-64
2021/05/07 07:04:19;;;;;;;3.03;2.13;;;5.70;99.90;;;;;;5090496;28;20149;-64
2021/05/07 07:06:45;;;;;;;3.47;2.80;;;5.70;99.90;;;;;;5109193;28;20051;-64
2021/05/07 07:09:12;;;;;;;2.63;2.42;;;5.80;99.90;;;;;;5109634;28;20191;-64
2021/05/07 07:11:38;;;;;;;2.80;2.60;;;5.80;99.90;;;;;;5109499;28;20044;-65
2021/05/07 07:14:04;;;;;;;3.63;2.55;;;5.90;99.90;;;;;;5109254;28;20044;-64
2021/05/07 07:16:30;;;;;;;3.95;2.83;;;6.00;99.90;;;;;;5108953;28;20051;-64
2021/05/07 07:18:56;;;;;;;3.83;2.65;;;6.30;99.90;;;;;;5090561;28;20589;-64
2021/05/07 07:21:22;;;;;;;2.93;2.50;;;6.40;99.90;;;;;;5108597;28;20081;-65
2021/05/07 07:23:48;;;;;;;2.67;2.47;;;6.60;99.90;;;;;;5107525;28;20075;-64
2021/05/07 07:26:13;;;;;;;3.37;2.17;;;6.60;99.90;;;;;;5105135;28;20737;-65
2021/05/07 07:28:39;;;;;;;2.70;2.50;;;6.50;99.90;;;;;;5087781;28;20135;-65
2021/05/07 07:31:06;;;;;;;3.70;2.30;;;6.40;99.90;;;;;;5087684;28;20080;-58
2021/05/07 07:33:32;;;;;;;3.72;2.45;;;6.50;99.90;;;;;;5089364;28;20207;-58
2021/05/07 07:35:58;;;;;;;3.05;2.20;;;6.80;99.90;;;;;;5092190;28;20040;-58
2021/05/07 07:38:25;;;;;;;5.72;2.30;;;6.90;99.90;;;;;;5090646;28;20055;-58
2021/05/07 07:40:51;;;;;;;2.58;2.20;;;6.90;99.90;;;;;;5091994;28;20055;-58
2021/05/07 07:43:18;;;;;;;3.35;2.40;;;7.00;99.90;;;;;;5092060;28;20060;-66
2021/05/07 07:45:44;;;;;;;2.33;2.08;;;7.10;99.90;;;;;;5092222;28;20044;-63
2021/05/07 07:48:11;;;;;;;2.80;2.17;;;7.30;99.90;;;;;;5091194;28;20081;-63
2021/05/07 07:50:37;;;;;;;3.85;2.10;;;7.30;99.90;;;;;;5092059;28;20361;-58
2021/05/07 07:53:03;;;;;;;2.80;2.47;;;7.10;99.90;;;;;;5090269;28;20476;-58
2021/05/07 07:55:29;;;;;;;5.33;2.67;;;7.00;99.90;;;;;;5089689;28;20190;-69
2021/05/07 07:57:55;;;;;;;3.50;2.20;;;7.20;99.90;;;;;;5089678;28;20466;-67
2021/05/07 08:00:20;;;;;;;4.33;2.40;;;7.20;99.90;;;;;;5089392;28;20134;-70
2021/05/07 08:02:47;;;;;;;5.20;2.70;;;7.50;99.90;;;;;;5089940;28;20056;-67
2021/05/07 08:05:14;;;;;;;3.80;2.40;;;7.50;99.90;;;;;;5089526;28;20047;-68
2021/05/07 08:07:41;;;;;;;7.30;2.72;;;7.50;99.90;;;;;;5089609;28;20050;-67
2021/05/07 08:10:08;;;;;;;7.82;3.00;;;7.80;99.90;;;;;;5087990;28;20131;-69
2021/05/07 08:12:34;;;;;;;15.18;3.35;;;7.90;99.90;;;;;;5088862;28;20501;-62
2021/05/07 08:14:59;;;;;;;3.20;2.03;;;8.10;99.90;;;;;;5097431;28;20044;-62
2021/05/07 08:17:25;;;;;;;3.17;2.27;;;8.20;99.90;;;;;;5091414;28;20439;-59
2021/05/07 08:19:51;;;;;;;2.97;2.10;;;8.30;99.90;;;;;;5092388;28;20491;-60
2021/05/07 08:22:17;;;;;;;3.97;2.20;;;8.20;99.90;;;;;;5091196;28;20329;-59
2021/05/07 08:24:44;;;;;;;3.53;2.00;;;8.10;99.50;;;;;;5092122;28;20044;-59
2021/05/07 08:27:10;;;;;;;5.80;2.17;;;8.00;97.60;;;;;;5092324;28;20302;-59
2021/05/07 08:29:35;;;;;;;3.57;2.17;;;7.80;99.50;;;;;;5092210;28;20113;-59
2021/05/07 08:32:01;;;;;;;4.50;1.97;;;7.80;98.50;;;;;;5090104;28;20720;-61
2021/05/07 08:34:27;;;;;;;5.97;2.00;;;7.90;99.40;;;;;;5108197;28;20040;-65
2021/05/07 08:36:53;;;;;;;3.10;1.98;;;8.00;97.80;;;;;;5104055;28;20061;-65
2021/05/07 08:39:19;;;;;;;3.53;1.70;;;8.10;97.00;;;;;;5111719;28;20558;-66
2021/05/07 08:41:48;;;;;;;3.77;1.80;;;8.10;95.90;;;;;;5111795;28;20043;-65
2021/05/07 08:44:13;;;;;;;6.07;1.90;;;8.30;96.00;;;;;;5111591;28;20313;-65
2021/05/07 08:46:43;;;;;;;3.07;2.13;;;8.50;95.60;;;;;;5111283;28;20308;-65
2021/05/07 08:49:10;;;;;;;3.13;1.77;;;8.50;95.80;;;;;;5093048;28;20115;-66
2021/05/07 08:51:36;;;;;;;1.67;1.30;;;8.60;94.90;;;;;;5111820;28;20772;-67
2021/05/07 08:54:02;;;;;;;5.37;1.60;;;8.70;90.20;;;;;;5111697;28;20772;-65
2021/05/07 08:56:28;;;;;;;3.43;1.80;;;8.60;91.90;;;;;;5111199;28;20330;-65
2021/05/07 08:58:54;;;;;;;5.50;2.40;;;8.40;90.40;;;;;;5111626;28;20187;-64
2021/05/07 09:01:19;;;;;;;9.33;2.43;;;8.30;91.70;;;;;;5111326;28;20340;-63
2021/05/07 09:03:47;;;;;;;5.40;2.17;;;8.40;93.20;;;;;;5111797;28;20047;-63
2021/05/07 09:06:18;;;;;;;7.63;2.30;;;8.40;88.90;;;;;;5112737;28;20371;-63
2021/05/07 09:08:48;;;;;;;4.60;1.73;;;8.50;93.30;;;;;;5111582;28;20301;-64
2021/05/07 09:11:15;;;;;;;3.63;1.70;;;8.60;91.50;;;;;;5111602;28;20344;-64
2021/05/07 09:13:41;;;;;;;4.67;1.20;;;8.60;91.30;;;;;;5111145;28;20648;-63
2021/05/07 09:16:09;;;;;;;2.70;1.27;;;8.60;80.40;;;;;;5111756;28;20302;-62
2021/05/07 09:18:50;;;;;;;1.57;1.33;;;8.60;80.00;;;;;;5113590;28;20339;-64
2021/05/07 09:21:16;;;;;;;1.57;1.40;;;8.60;75.70;;;;;;5112121;28;20301;-67
2021/05/07 09:23:47;;;;;;;2.80;1.70;;;8.70;82.00;;;;;;5111192;28;20305;-65
2021/05/07 09:26:13;;;;;;;2.27;1.73;;;9.10;84.60;;;;;;5111219;28;20354;-66
2021/05/07 09:28:51;;;;;;;6.13;2.07;;;9.30;76.80;;;;;;5110906;28;20384;-64
2021/05/07 09:31:19;;;;;;;3.63;1.70;;;9.60;72.20;;;;;;5092296;28;20299;-64
2021/05/07 09:33:49;;;;;;;3.13;1.77;;;9.60;74.40;;;;;;5110364;28;20329;-65
2021/05/07 09:36:29;;;;;;;2.60;1.57;;;9.60;75.50;;;;;;5110705;28;20293;-67
2021/05/07 09:38:59;;;;;;;4.50;1.30;;;9.70;76.50;;;;;;5110416;28;20293;-65
2021/05/07 09:41:25;;;;;;;4.13;1.50;;;9.50;70.80;;;;;;5110552;28;20877;-66
2021/05/07 09:43:51;;;;;;;2.03;1.40;;;9.30;72.70;;;;;;5110331;28;20293;-66
2021/05/07 09:46:17;;;;;;;1.80;1.20;;;9.20;70.00;;;;;;5110561;28;20320;-66
2021/05/07 09:48:43;;;;;;;4.27;1.20;;;9.20;72.00;;;;;;5110576;28;20305;-65
2021/05/07 09:51:12;;;;;;;3.00;1.23;;;9.30;71.00;;;;;;5109714;28;20047;-66
2021/05/07 09:53:39;;;;;;;3.27;1.50;;;9.50;69.40;;;;;;5109314;28;20362;-65
2021/05/07 09:56:20;;;;;;;3.37;1.50;;;9.60;72.20;;;;;;5109556;28;20408;-66
2021/05/07 09:58:46;;;;;;;3.27;1.60;;;9.70;72.30;;;;;;5111030;28;20415;-64
2021/05/07 10:01:12;;;;;;;3.60;1.27;;;9.60;70.80;;;;;;5113804;28;20349;-63
2021/05/07 10:03:39;;;;;;;1.90;1.17;;;9.70;67.20;;;;;;5117233;28;20044;-63
2021/05/07 10:06:05;;;;;;;2.13;1.30;;;9.80;71.20;;;;;;5109546;28;20123;-64
2021/05/07 10:08:45;;;;;;;3.10;1.60;;;9.90;70.70;;;;;;5108915;28;20297;-62
2021/05/07 10:11:12;;;;;;;3.10;1.57;;;10.10;70.70;;;;;;5109104;28;20317;-61
2021/05/07 10:13:39;;;;;;;2.37;1.33;;;10.30;71.20;;;;;;5109012;28;20301;-62
2021/05/07 10:16:06;;;;;;;6.27;1.60;;;10.50;70.90;;;;;;5108657;28;20396;-64
2021/05/07 10:18:34;;;;;;;2.33;1.10;;;10.60;66.90;;;;;;5109102;28;20871;-63
2021/05/07 10:21:07;;;;;;;3.60;1.40;;;10.70;68.50;;;;;;5110063;28;20346;-63
2021/05/07 10:23:35;;;;;;;3.93;1.30;;;10.70;66.60;;;;;;5109262;28;20289;-64
2021/05/07 10:26:00;;;;;;;2.93;1.17;;;11.00;61.30;;;;;;5108805;28;20381;-63
2021/05/07 10:28:29;;;;;;;5.30;1.20;;;11.10;61.00;;;;;;5108616;28;20392;-63
2021/05/07 10:31:09;;;;;;;2.50;1.20;;;11.00;60.60;;;;;;5108327;28;20082;-63
2021/05/07 10:33:35;;;;;;;3.37;1.30;;;10.80;59.70;;;;;;5108629;28;20831;-64
2021/05/07 10:36:01;;;;;;;2.20;1.17;;;10.50;65.70;;;;;;5108597;28;20293;-63
2021/05/07 10:38:28;;;;;;;2.33;1.03;;;10.60;67.30;;;;;;5108062;28;20380;-64
2021/05/07 10:41:10;;;;;;;1.97;1.30;;;10.80;67.50;;;;;;5108759;28;20458;-64
2021/05/07 10:43:41;;;;;;;1.93;1.20;;;11.00;60.00;;;;;;5108470;28;20300;-64
2021/05/07 10:46:18;;;;;;;2.07;1.13;;;11.00;60.60;;;;;;5108312;28;20289;-63
2021/05/07 10:48:54;;;;;;;1.77;1.10;;;11.30;60.10;;;;;;5108762;28;20293;-63
2021/05/07 10:51:20;;;;;;;2.33;1.17;;;11.50;56.50;;;;;;5108224;28;20798;-64
2021/05/07 10:53:46;;;;;;;1.70;1.20;;;11.60;58.70;;;;;;5110044;28;20293;-62
2021/05/07 10:56:14;;;;;;;1.40;1.20;;;11.70;59.70;;;;;;5108941;28;20305;-63
2021/05/07 10:58:40;;;;;;;3.17;1.23;;;11.40;61.30;;;;;;5109041;28;20380;-59
2021/05/07 11:01:23;;;;;;;2.03;1.30;;;11.20;67.70;;;;;;5110612;28;20301;-64
2021/05/07 11:04:11;;;;;;;2.40;1.30;;;11.10;66.70;;;;;;5109536;28;20293;-61
2021/05/07 11:06:42;;;;;;;2.17;1.20;;;11.40;68.40;;;;;;5108610;28;20320;-60
2021/05/07 11:09:20;;;;;;;2.33;1.30;;;11.50;65.10;;;;;;5110678;28;20308;-63
2021/05/07 11:11:47;;;;;;;2.23;1.10;;;11.40;61.30;;;;;;5113134;28;20313;-62
2021/05/07 11:14:18;;;;;;;2.87;1.13;;;11.50;63.80;;;;;;5113435;28;20333;-63
2021/05/07 11:16:48;;;;;;;1.30;1.00;;;11.70;61.80;;;;;;5113347;28;20663;-67
2021/05/07 11:19:21;;;;;;;3.27;1.00;;;11.30;60.10;;;;;;5111401;28;20366;-67
2021/05/07 11:21:56;;;;;;;2.70;1.10;;;11.10;60.30;;;;;;5110116;28;20640;-66
2021/05/07 11:24:27;;;;;;;1.27;0.90;;;11.00;61.20;;;;;;5111373;28;20304;-67
2021/05/07 11:26:53;;;;;;;2.03;1.00;;;11.30;64.10;;;;;;5111240;28;20300;-64
2021/05/07 11:29:33;;;;;;;1.80;0.90;;;11.30;63.30;;;;;;5111062;28;20301;-64
2021/05/07 11:32:11;;;;;;;3.60;0.80;;;11.50;62.60;;;;;;5111379;28;20285;-58
2021/05/07 11:34:37;;;;;;;1.60;0.73;;;11.60;61.00;;;;;;5109418;28;20324;-58
2021/05/07 11:37:03;;;;;;;2.10;1.20;;;11.50;61.60;;;;;;5111537;28;20298;-58
2021/05/07 11:39:29;;;;;;;1.10;0.80;;;11.50;59.80;;;;;;5111371;28;20040;-59
2021/05/07 11:41:55;;;;;;;1.40;0.80;;;11.60;55.50;;;;;;5111385;28;20814;-58
2021/05/07 11:44:21;;;;;;;2.57;0.90;;;11.90;56.50;;;;;;5110482;28;20046;-59
2021/05/07 11:47:06;;;;;;;1.53;0.80;;;11.60;55.30;;;;;;5114016;28;20050;-71
2021/05/07 11:49:43;;;;;;;1.17;0.80;;;11.50;55.80;;;;;;5113091;28;20098;-70
2021/05/07 11:52:09;;;;;;;2.17;1.20;;;11.40;55.90;;;;;;5094001;28;20304;-69
2021/05/07 11:54:40;;;;;;;1.47;0.97;;;11.60;58.10;;;;;;5114049;28;20302;-71
2021/05/07 11:57:06;;;;;;;4.33;1.17;;;11.80;56.70;;;;;;5114230;28;20071;-71
2021/05/07 11:59:32;;;;;;;2.97;0.77;;;11.80;55.80;;;;;;5113144;28;20718;-70
2021/05/07 12:02:05;;;;;;;2.03;1.17;;;12.00;56.90;;;;;;5114132;28;20054;-69
2021/05/07 12:04:42;;;;;;;1.17;0.90;;;11.90;54.10;;;;;;5113940;28;20071;-69
2021/05/07 12:07:18;;;;;;;2.27;0.90;;;11.70;53.80;;;;;;5112303;28;20288;-70
2021/05/07 12:09:48;;;;;;;2.87;0.70;;;11.90;58.00;;;;;;5112884;28;20309;-71
2021/05/07 12:12:14;;;;;;;0.93;0.63;;;11.90;54.10;;;;;;5112051;28;20324;-68
2021/05/07 12:14:48;;;;;;;2.57;0.80;;;11.90;53.20;;;;;;5112203;28;20329;-71
2021/05/07 12:17:14;;;;;;;2.13;0.75;;;11.80;54.80;;;;;;5111775;28;20352;-71
2021/05/07 12:19:40;;;;;;;3.90;0.97;;;11.70;52.60;;;;;;5110840;28;20108;-70
2021/05/07 12:22:07;;;;;;;2.03;0.87;;;11.50;54.90;;;;;;5110505;28;20384;-71
2021/05/07 12:24:32;;;;;;;1.03;0.80;;;11.30;55.80;;;;;;5111712;28;20389;-69
2021/05/07 12:26:58;;;;;;;3.50;0.90;;;11.40;56.40;;;;;;5112565;28;20370;-68
2021/05/07 12:29:37;;;;;;;2.50;0.77;;;11.20;54.80;;;;;;5110530;28;20466;-68
2021/05/07 12:32:03;;;;;;;3.00;0.80;;;11.20;53.60;;;;;;5110415;28;20123;-66
2021/05/07 12:34:30;;;;;;;3.50;1.00;;;11.60;56.20;;;;;;5109387;28;20297;-62
2021/05/07 12:36:58;;;;;;;2.40;1.00;;;11.80;56.10;;;;;;5108873;28;20434;-65
2021/05/07 12:39:26;;;;;;;1.77;0.90;;;12.10;53.60;;;;;;5090275;28;20391;-66
2021/05/07 12:41:55;;;;;;;2.27;0.90;;;12.60;53.20;;;;;;5111042;28;20290;-62
2021/05/07 12:44:25;;;;;;;3.77;1.13;;;12.30;51.90;;;;;;5109319;28;20349;-58
2021/05/07 12:46:51;;;;;;;1.27;0.80;;;12.20;52.20;;;;;;5109426;28;20301;-59
2021/05/07 12:49:18;;;;;;;1.50;0.80;;;12.40;49.80;;;;;;5109172;28;21018;-58
2021/05/07 12:51:43;;;;;;;1.07;0.97;;;12.60;47.90;;;;;;5109889;28;20040;-64
2021/05/07 12:54:09;;;;;;;2.20;0.90;;;13.00;49.60;;;;;;5109980;28;20300;-64
2021/05/07 12:56:40;;;;;;;2.03;0.80;;;13.00;48.80;;;;;;5110214;28;20042;-65